createdAt,value
2019-03-23T00:00:05.490Z,1026.43
2019-03-23T00:01:02.402Z,1026.43
2019-03-23T00:02:02.583Z,1026.43
2019-03-23T00:03:01.782Z,1026.31
2019-03-23T00:04:02.038Z,1026.31
2019-03-23T00:05:02.288Z,1026.31
2019-03-23T00:06:02.494Z,1026.31
2019-03-23T00:07:01.787Z,1026.27
2019-03-23T00:08:02.054Z,1026.27
2019-03-23T00:09:02.274Z,1026.27
2019-03-23T00:10:06.020Z,1026.27
2019-03-23T00:11:01.702Z,1026.34
2019-03-23T00:12:01.899Z,1026.34
2019-03-23T00:13:02.116Z,1026.34
2019-03-23T00:14:02.386Z,1026.34
2019-03-23T00:15:02.651Z,1026.36
2019-03-23T00:16:01.763Z,1026.36
2019-03-23T00:17:02.014Z,1026.36
2019-03-23T00:18:02.148Z,1026.36
2019-03-23T00:19:02.380Z,1026.21
2019-03-23T00:20:01.667Z,1026.21
2019-03-23T00:21:02.606Z,1026.21
2019-03-23T00:22:01.753Z,1026.21
2019-03-23T00:23:01.949Z,1026.19
2019-03-23T00:24:02.127Z,1026.19
2019-03-23T00:25:02.326Z,1026.19
2019-03-23T00:26:02.523Z,1026.19
2019-03-23T00:27:01.779Z,1026.12
2019-03-23T00:28:02.021Z,1026.12
2019-03-23T00:29:02.178Z,1026.12
2019-03-23T00:30:02.363Z,1026.12
2019-03-23T00:31:02.618Z,1026.17
2019-03-23T00:32:01.881Z,1026.17
2019-03-23T00:33:02.164Z,1026.17
2019-03-23T00:34:02.311Z,1026.17
2019-03-23T00:35:02.564Z,1026.22
2019-03-23T00:36:01.746Z,1026.22
2019-03-23T00:37:02.019Z,1026.22
2019-03-23T00:38:02.239Z,1026.22
2019-03-23T00:39:02.459Z,1026.29
2019-03-23T00:40:01.627Z,1026.29
2019-03-23T00:41:01.839Z,1026.29
2019-03-23T00:42:02.089Z,1026.26
2019-03-23T00:43:02.200Z,1026.26
2019-03-23T00:44:02.444Z,1026.26
2019-03-23T00:45:01.747Z,1026.26
2019-03-23T00:46:01.911Z,1026.25
2019-03-23T00:47:02.140Z,1026.25
2019-03-23T00:48:02.312Z,1026.25
2019-03-23T00:49:02.512Z,1026.25
2019-03-23T00:50:01.877Z,1026.34
2019-03-23T00:51:01.995Z,1026.34
2019-03-23T00:52:02.267Z,1026.34
2019-03-23T00:53:02.415Z,1026.34
2019-03-23T00:54:01.677Z,1026.22
2019-03-23T00:55:01.954Z,1026.22
2019-03-23T00:56:02.177Z,1026.22
2019-03-23T00:57:02.407Z,1026.22
2019-03-23T00:58:01.653Z,1026.25
2019-03-23T00:59:01.915Z,1026.25
2019-03-23T01:00:04.303Z,1026.25
2019-03-23T01:01:02.104Z,1026.25
2019-03-23T01:02:02.329Z,1026.32
2019-03-23T01:03:02.797Z,1026.32
2019-03-23T01:04:01.736Z,1026.32
2019-03-23T01:05:02.068Z,1026.32
2019-03-23T01:06:02.301Z,1026.24
2019-03-23T01:07:02.427Z,1026.24
2019-03-23T01:08:01.733Z,1026.24
2019-03-23T01:09:01.974Z,1026.24
2019-03-23T01:10:02.129Z,1026.37
2019-03-23T01:11:02.366Z,1026.37
2019-03-23T01:12:02.659Z,1026.37
2019-03-23T01:13:01.830Z,1026.37
2019-03-23T01:14:02.017Z,1026.29
2019-03-23T01:15:02.311Z,1026.29
2019-03-23T01:16:02.504Z,1026.29
2019-03-23T01:17:01.755Z,1026.29
2019-03-23T01:18:01.944Z,1026.21
2019-03-23T01:19:02.174Z,1026.21
2019-03-23T01:20:02.369Z,1026.21
2019-03-23T01:21:02.602Z,1026.21
2019-03-23T01:22:01.904Z,1026.24
2019-03-23T01:23:02.153Z,1026.24
2019-03-23T01:24:02.273Z,1026.24
2019-03-23T01:25:02.544Z,1026.24
2019-03-23T01:26:01.863Z,1026.27
2019-03-23T01:27:02.047Z,1026.27
2019-03-23T01:28:02.197Z,1026.27
2019-03-23T01:29:02.462Z,1026.27
2019-03-23T01:30:01.840Z,1026.15
2019-03-23T01:31:02.095Z,1026.15
2019-03-23T01:32:02.354Z,1026.15
2019-03-23T01:33:02.500Z,1026.15
2019-03-23T01:34:01.752Z,1026.23
2019-03-23T01:35:01.975Z,1026.23
2019-03-23T01:36:02.557Z,1026.23
2019-03-23T01:37:03.614Z,1026.23
2019-03-23T01:38:01.980Z,1026.15
2019-03-23T01:39:02.128Z,1026.15
2019-03-23T01:40:02.416Z,1026.15
2019-03-23T01:41:02.644Z,1026.15
2019-03-23T01:42:01.824Z,1026.18
2019-03-23T01:43:02.051Z,1026.18
2019-03-23T01:44:02.430Z,1026.18
2019-03-23T01:45:02.594Z,1026.18
2019-03-23T01:46:01.785Z,1026.03
2019-03-23T01:47:02.067Z,1026.03
2019-03-23T01:48:02.201Z,1026.03
2019-03-23T01:49:02.455Z,1026.03
2019-03-23T01:50:01.725Z,1025.96
2019-03-23T01:51:01.955Z,1025.96
2019-03-23T01:52:02.165Z,1025.96
2019-03-23T01:53:02.343Z,1025.96
2019-03-23T01:54:02.554Z,1025.94
2019-03-23T01:55:01.878Z,1025.94
2019-03-23T01:56:02.125Z,1025.94
2019-03-23T01:57:02.354Z,1025.94
2019-03-23T01:58:02.551Z,1025.93
2019-03-23T01:59:02.434Z,1025.93
2019-03-23T02:00:04.144Z,1025.93
2019-03-23T02:01:02.053Z,1025.93
2019-03-23T02:02:02.243Z,1025.9
2019-03-23T02:03:02.480Z,1025.9
2019-03-23T02:04:01.678Z,1025.9
2019-03-23T02:05:02.000Z,1025.9
2019-03-23T02:06:02.205Z,1025.78
2019-03-23T02:07:13.152Z,1025.78
2019-03-23T02:08:02.593Z,1025.78
2019-03-23T02:09:02.052Z,1025.78
2019-03-23T02:10:02.080Z,1025.71
2019-03-23T02:11:02.321Z,1025.71
2019-03-23T02:12:02.551Z,1025.71
2019-03-23T02:13:01.795Z,1025.71
2019-03-23T02:14:01.976Z,1025.84
2019-03-23T02:15:02.332Z,1025.84
2019-03-23T02:16:02.429Z,1025.84
2019-03-23T02:17:01.634Z,1025.84
2019-03-23T02:18:01.973Z,1025.82
2019-03-23T02:19:02.020Z,1025.82
2019-03-23T02:20:02.243Z,1025.82
2019-03-23T02:21:02.470Z,1025.82
2019-03-23T02:22:01.698Z,1025.91
2019-03-23T02:23:01.921Z,1025.91
2019-03-23T02:24:02.299Z,1025.91
2019-03-23T02:25:02.382Z,1025.95
2019-03-23T02:26:01.631Z,1025.95
2019-03-23T02:27:01.847Z,1025.95
2019-03-23T02:28:02.590Z,1025.95
2019-03-23T02:29:01.855Z,1025.89
2019-03-23T02:30:02.050Z,1025.89
2019-03-23T02:31:02.280Z,1025.89
2019-03-23T02:32:02.666Z,1025.89
2019-03-23T02:33:01.743Z,1025.93
2019-03-23T02:34:01.949Z,1025.93
2019-03-23T02:35:02.131Z,1025.93
2019-03-23T02:36:02.394Z,1025.93
2019-03-23T02:37:02.631Z,1025.97
2019-03-23T02:38:01.736Z,1025.97
2019-03-23T02:39:01.924Z,1025.97
2019-03-23T02:40:02.223Z,1025.97
2019-03-23T02:41:02.453Z,1026.01
2019-03-23T02:42:02.735Z,1026.01
2019-03-23T02:43:01.889Z,1026.01
2019-03-23T02:44:02.158Z,1026.01
2019-03-23T02:45:02.386Z,1026.01
2019-03-23T02:46:02.226Z,1026.01
2019-03-23T02:47:02.161Z,1026.01
2019-03-23T02:48:02.373Z,1026.01
2019-03-23T02:49:02.572Z,1026.06
2019-03-23T02:50:01.865Z,1026.06
2019-03-23T02:51:02.082Z,1026.06
2019-03-23T02:52:01.919Z,1026.06
2019-03-23T02:53:02.070Z,1026.07
2019-03-23T02:54:02.337Z,1026.07
2019-03-23T02:55:02.657Z,1026.07
2019-03-23T02:56:01.788Z,1026.07
2019-03-23T02:57:02.061Z,1026.19
2019-03-23T02:58:02.188Z,1026.19
2019-03-23T02:59:02.372Z,1026.19
2019-03-23T03:00:04.235Z,1026.19
2019-03-23T03:01:01.977Z,1026.25
2019-03-23T03:02:02.139Z,1026.25
2019-03-23T03:03:02.373Z,1026.25
2019-03-23T03:04:02.643Z,1026.25
2019-03-23T03:05:02.009Z,1026.18
2019-03-23T03:06:02.131Z,1026.18
2019-03-23T03:07:02.459Z,1026.18
2019-03-23T03:08:02.579Z,1026.18
2019-03-23T03:09:01.894Z,1026.21
2019-03-23T03:10:02.087Z,1026.21
2019-03-23T03:11:02.332Z,1026.21
2019-03-23T03:12:02.538Z,1026.21
2019-03-23T03:13:01.791Z,1026.16
2019-03-23T03:14:02.023Z,1026.16
2019-03-23T03:15:02.350Z,1026.16
2019-03-23T03:16:02.474Z,1026.16
2019-03-23T03:17:01.755Z,1026.25
2019-03-23T03:18:01.962Z,1026.25
2019-03-23T03:19:02.247Z,1026.25
2019-03-23T03:20:02.579Z,1026.25
2019-03-23T03:21:01.947Z,1026.33
2019-03-23T03:22:02.018Z,1026.33
2019-03-23T03:23:02.221Z,1026.33
2019-03-23T03:24:02.416Z,1026.33
2019-03-23T03:25:01.703Z,1026.4
2019-03-23T03:26:01.940Z,1026.4
2019-03-23T03:27:02.077Z,1026.4
2019-03-23T03:28:02.366Z,1026.4
2019-03-23T03:29:02.612Z,1026.31
2019-03-23T03:30:01.899Z,1026.31
2019-03-23T03:31:02.078Z,1026.31
2019-03-23T03:32:02.263Z,1026.31
2019-03-23T03:33:02.473Z,1026.33
2019-03-23T03:34:01.926Z,1026.33
2019-03-23T03:35:02.069Z,1026.33
2019-03-23T03:36:02.264Z,1026.33
2019-03-23T03:37:02.479Z,1026.37
2019-03-23T03:38:01.683Z,1026.37
2019-03-23T03:39:02.594Z,1026.37
2019-03-23T03:40:01.791Z,1026.37
2019-03-23T03:41:02.004Z,1026.41
2019-03-23T03:42:02.351Z,1026.41
2019-03-23T03:43:02.506Z,1026.41
2019-03-23T03:44:01.638Z,1026.41
2019-03-23T03:45:01.841Z,1026.36
2019-03-23T03:46:02.217Z,1026.36
2019-03-23T03:47:02.272Z,1026.36
2019-03-23T03:48:02.487Z,1026.36
2019-03-23T03:49:13.226Z,1026.44
2019-03-23T03:50:01.909Z,1026.44
2019-03-23T03:51:02.158Z,1026.44
2019-03-23T03:52:02.434Z,1026.44
2019-03-23T03:53:02.689Z,1026.49
2019-03-23T03:54:01.836Z,1026.49
2019-03-23T03:55:02.114Z,1026.49
2019-03-23T03:56:02.323Z,1026.49
2019-03-23T03:57:02.589Z,1026.62
2019-03-23T03:58:01.876Z,1026.62
2019-03-23T03:59:02.145Z,1026.62
2019-03-23T04:00:02.430Z,1026.62
2019-03-23T04:01:02.551Z,1026.55
2019-03-23T04:02:01.740Z,1026.55
2019-03-23T04:03:01.967Z,1026.55
2019-03-23T04:04:02.140Z,1026.66
2019-03-23T04:05:02.452Z,1026.66
2019-03-23T04:06:02.597Z,1026.66
2019-03-23T04:07:01.896Z,1026.66
2019-03-23T04:08:12.332Z,1026.67
2019-03-23T04:09:02.270Z,1026.67
2019-03-23T04:10:02.582Z,1026.67
2019-03-23T04:11:01.769Z,1026.67
2019-03-23T04:12:01.998Z,1026.59
2019-03-23T04:13:02.172Z,1026.59
2019-03-23T04:14:02.362Z,1026.59
2019-03-23T04:15:02.649Z,1026.59
2019-03-23T04:16:01.804Z,1026.43
2019-03-23T04:17:02.068Z,1026.43
2019-03-23T04:18:02.294Z,1026.43
2019-03-23T04:19:02.529Z,1026.43
2019-03-23T04:20:01.790Z,1026.69
2019-03-23T04:21:01.958Z,1026.69
2019-03-23T04:22:02.178Z,1026.69
2019-03-23T04:23:02.491Z,1026.69
2019-03-23T04:24:02.599Z,1026.54
2019-03-23T04:25:02.024Z,1026.54
2019-03-23T04:26:02.080Z,1026.54
2019-03-23T04:27:02.254Z,1026.54
2019-03-23T04:28:02.599Z,1026.64
2019-03-23T04:29:01.747Z,1026.64
2019-03-23T04:30:02.529Z,1026.64
2019-03-23T04:31:02.751Z,1026.64
2019-03-23T04:32:01.804Z,1026.64
2019-03-23T04:33:02.095Z,1026.64
2019-03-23T04:34:02.205Z,1026.64
2019-03-23T04:35:02.490Z,1026.64
2019-03-23T04:36:01.664Z,1026.74
2019-03-23T04:37:01.892Z,1026.74
2019-03-23T04:38:02.039Z,1026.74
2019-03-23T04:39:02.226Z,1026.74
2019-03-23T04:40:02.587Z,1026.72
2019-03-23T04:41:01.853Z,1026.72
2019-03-23T04:42:02.035Z,1026.72
2019-03-23T04:43:02.221Z,1026.72
2019-03-23T04:44:02.099Z,1026.76
2019-03-23T04:45:02.341Z,1026.76
2019-03-23T04:46:02.531Z,1026.76
2019-03-23T04:47:01.740Z,1026.76
2019-03-23T04:48:02.020Z,1026.84
2019-03-23T04:49:02.197Z,1026.84
2019-03-23T04:50:02.571Z,1026.84
2019-03-23T04:51:01.674Z,1026.84
2019-03-23T04:52:01.930Z,1026.63
2019-03-23T04:53:02.247Z,1026.63
2019-03-23T04:54:02.394Z,1026.63
2019-03-23T04:55:01.661Z,1026.63
2019-03-23T04:56:01.818Z,1026.86
2019-03-23T04:57:02.100Z,1026.86
2019-03-23T04:58:02.343Z,1026.86
2019-03-23T04:59:02.521Z,1026.86
2019-03-23T05:00:03.731Z,1026.94
2019-03-23T05:01:04.718Z,1026.94
2019-03-23T05:02:01.826Z,1026.94
2019-03-23T05:03:01.932Z,1026.94
2019-03-23T05:04:02.184Z,1026.93
2019-03-23T05:05:02.400Z,1026.93
2019-03-23T05:06:02.596Z,1026.93
2019-03-23T05:07:01.826Z,1026.93
2019-03-23T05:08:02.038Z,1026.97
2019-03-23T05:09:02.184Z,1026.97
2019-03-23T05:10:02.433Z,1026.97
2019-03-23T05:11:01.617Z,1026.97
2019-03-23T05:12:01.887Z,1027.12
2019-03-23T05:13:02.040Z,1027.12
2019-03-23T05:14:02.320Z,1027.12
2019-03-23T05:15:02.545Z,1027.12
2019-03-23T05:16:01.713Z,1027.14
2019-03-23T05:17:01.989Z,1027.14
2019-03-23T05:18:02.105Z,1027.14
2019-03-23T05:19:02.374Z,1027.14
2019-03-23T05:20:01.732Z,1027.16
2019-03-23T05:21:01.919Z,1027.16
2019-03-23T05:22:02.160Z,1027.16
2019-03-23T05:23:02.337Z,1027.16
2019-03-23T05:24:02.512Z,1027.09
2019-03-23T05:25:01.867Z,1027.09
2019-03-23T05:26:01.989Z,1027.09
2019-03-23T05:27:02.193Z,1027.09
2019-03-23T05:28:02.390Z,1027.1
2019-03-23T05:29:01.710Z,1027.1
2019-03-23T05:30:01.982Z,1027.1
2019-03-23T05:31:02.151Z,1027.1
2019-03-23T05:32:02.356Z,1027.2
2019-03-23T05:33:01.629Z,1027.2
2019-03-23T05:34:01.977Z,1027.2
2019-03-23T05:35:02.275Z,1027.2
2019-03-23T05:36:02.458Z,1027.08
2019-03-23T05:37:01.694Z,1027.08
2019-03-23T05:38:01.916Z,1027.08
2019-03-23T05:39:02.132Z,1027.08
2019-03-23T05:40:02.428Z,1027.12
2019-03-23T05:41:02.674Z,1027.12
2019-03-23T05:42:01.761Z,1027.12
2019-03-23T05:43:01.948Z,1027.12
2019-03-23T05:44:02.115Z,1027.18
2019-03-23T05:45:02.393Z,1027.18
2019-03-23T05:46:01.695Z,1027.18
2019-03-23T05:47:01.878Z,1027.24
2019-03-23T05:48:02.143Z,1027.24
2019-03-23T05:49:02.327Z,1027.24
2019-03-23T05:50:02.586Z,1027.24
2019-03-23T05:51:01.946Z,1027.21
2019-03-23T05:52:02.109Z,1027.21
2019-03-23T05:53:02.273Z,1027.21
2019-03-23T05:54:02.579Z,1027.21
2019-03-23T05:55:01.829Z,1027.1
2019-03-23T05:56:02.082Z,1027.1
2019-03-23T05:57:02.260Z,1027.1
2019-03-23T05:58:02.461Z,1027.1
2019-03-23T05:59:01.739Z,1027.07
2019-03-23T06:00:03.694Z,1027.07
2019-03-23T06:01:02.460Z,1027.07
2019-03-23T06:02:01.745Z,1027.07
2019-03-23T06:03:01.947Z,1027.04
2019-03-23T06:04:02.180Z,1027.04
2019-03-23T06:05:02.435Z,1027.04
2019-03-23T06:06:01.719Z,1027.04
2019-03-23T06:07:01.910Z,1027.13
2019-03-23T06:08:02.171Z,1027.13
2019-03-23T06:09:02.364Z,1027.13
2019-03-23T06:10:02.563Z,1027.13
2019-03-23T06:11:01.843Z,1027.34
2019-03-23T06:12:02.106Z,1027.34
2019-03-23T06:13:02.392Z,1027.34
2019-03-23T06:14:02.564Z,1027.34
2019-03-23T06:15:01.804Z,1027.31
2019-03-23T06:16:02.087Z,1027.31
2019-03-23T06:17:02.299Z,1027.31
2019-03-23T06:18:02.675Z,1027.31
2019-03-23T06:19:01.846Z,1027.4
2019-03-23T06:20:02.081Z,1027.4
2019-03-23T06:21:02.357Z,1027.4
2019-03-23T06:22:02.581Z,1027.4
2019-03-23T06:23:01.941Z,1027.47
2019-03-23T06:24:02.101Z,1027.47
2019-03-23T06:25:02.387Z,1027.47
2019-03-23T06:26:02.604Z,1027.47
2019-03-23T06:27:01.848Z,1027.4
2019-03-23T06:28:01.999Z,1027.4
2019-03-23T06:29:02.267Z,1027.4
2019-03-23T06:30:02.498Z,1027.4
2019-03-23T06:31:01.750Z,1027.53
2019-03-23T06:32:01.934Z,1027.53
2019-03-23T06:33:02.131Z,1027.53
2019-03-23T06:34:02.440Z,1027.53
2019-03-23T06:35:01.686Z,1027.56
2019-03-23T06:36:01.904Z,1027.56
2019-03-23T06:37:02.247Z,1027.56
2019-03-23T06:38:06.906Z,1027.56
2019-03-23T06:39:06.225Z,1027.59
2019-03-23T06:40:01.870Z,1027.59
2019-03-23T06:41:01.941Z,1027.59
2019-03-23T06:42:02.135Z,1027.59
2019-03-23T06:43:02.342Z,1027.62
2019-03-23T06:44:02.613Z,1027.62
2019-03-23T06:45:02.019Z,1027.62
2019-03-23T06:46:02.059Z,1027.62
2019-03-23T06:47:02.280Z,1027.61
2019-03-23T06:48:02.508Z,1027.61
2019-03-23T06:49:01.644Z,1027.61
2019-03-23T06:50:01.908Z,1027.61
2019-03-23T06:51:03.692Z,1027.72
2019-03-23T06:52:02.361Z,1027.72
2019-03-23T06:53:02.606Z,1027.72
2019-03-23T06:54:01.760Z,1027.72
2019-03-23T06:55:02.134Z,1027.67
2019-03-23T06:56:02.338Z,1027.67
2019-03-23T06:57:02.651Z,1027.67
2019-03-23T06:58:01.766Z,1027.67
2019-03-23T06:59:01.958Z,1027.88
2019-03-23T07:00:05.199Z,1027.88
2019-03-23T07:01:02.114Z,1027.88
2019-03-23T07:02:02.206Z,1027.88
2019-03-23T07:03:02.445Z,1027.9
2019-03-23T07:04:02.657Z,1027.9
2019-03-23T07:05:01.772Z,1027.9
2019-03-23T07:06:01.980Z,1027.9
2019-03-23T07:07:02.151Z,1027.91
2019-03-23T07:08:02.335Z,1027.91
2019-03-23T07:09:01.968Z,1027.91
2019-03-23T07:10:02.194Z,1027.91
2019-03-23T07:11:02.451Z,1028.04
2019-03-23T07:12:02.642Z,1028.04
2019-03-23T07:13:01.860Z,1028.04
2019-03-23T07:14:02.106Z,1028.04
2019-03-23T07:15:02.355Z,1027.9
2019-03-23T07:16:02.507Z,1027.9
2019-03-23T07:17:02.544Z,1027.9
2019-03-23T07:18:01.801Z,1027.9
2019-03-23T07:19:02.016Z,1028.17
2019-03-23T07:20:02.257Z,1028.17
2019-03-23T07:21:02.486Z,1028.17
2019-03-23T07:22:01.846Z,1028.17
2019-03-23T07:23:01.952Z,1028.1
2019-03-23T07:24:02.456Z,1028.1
2019-03-23T07:25:01.761Z,1028.1
2019-03-23T07:26:01.922Z,1028.1
2019-03-23T07:27:02.159Z,1028.05
2019-03-23T07:28:02.381Z,1028.05
2019-03-23T07:29:02.602Z,1028.05
2019-03-23T07:30:01.786Z,1028.19
2019-03-23T07:31:01.718Z,1028.19
2019-03-23T07:32:06.510Z,1028.19
2019-03-23T07:33:02.177Z,1028.19
2019-03-23T07:34:02.451Z,1028.34
2019-03-23T07:35:02.611Z,1028.34
2019-03-23T07:36:01.829Z,1028.34
2019-03-23T07:37:01.987Z,1028.34
2019-03-23T07:38:02.361Z,1028.2
2019-03-23T07:39:02.534Z,1028.2
2019-03-23T07:40:01.889Z,1028.2
2019-03-23T07:41:02.362Z,1028.2
2019-03-23T07:42:02.334Z,1028.33
2019-03-23T07:43:02.435Z,1028.33
2019-03-23T07:44:01.718Z,1028.33
2019-03-23T07:45:01.977Z,1028.33
2019-03-23T07:46:02.127Z,1028.39
2019-03-23T07:47:02.351Z,1028.39
2019-03-23T07:48:02.624Z,1028.39
2019-03-23T07:49:01.899Z,1028.39
2019-03-23T07:50:02.159Z,1028.38
2019-03-23T07:51:02.345Z,1028.38
2019-03-23T07:52:02.583Z,1028.38
2019-03-23T07:53:01.796Z,1028.38
2019-03-23T07:54:03.150Z,1028.36
2019-03-23T07:55:02.318Z,1028.36
2019-03-23T07:56:02.169Z,1028.36
2019-03-23T07:57:02.499Z,1028.36
2019-03-23T07:58:02.558Z,1028.35
2019-03-23T07:59:01.795Z,1028.35
2019-03-23T08:00:04.075Z,1028.35
2019-03-23T08:01:01.801Z,1028.35
2019-03-23T08:02:02.166Z,1028.44
2019-03-23T08:03:02.430Z,1028.44
2019-03-23T08:04:02.603Z,1028.44
2019-03-23T08:05:01.781Z,1028.44
2019-03-23T08:06:02.132Z,1028.6
2019-03-23T08:07:02.296Z,1028.6
2019-03-23T08:08:02.504Z,1028.6
2019-03-23T08:09:01.677Z,1028.6
2019-03-23T08:10:01.900Z,1028.57
2019-03-23T08:11:02.235Z,1028.57
2019-03-23T08:12:02.339Z,1028.57
2019-03-23T08:13:02.668Z,1028.57
2019-03-23T08:14:02.432Z,1028.69
2019-03-23T08:15:02.598Z,1028.69
2019-03-23T08:16:01.959Z,1028.69
2019-03-23T08:17:02.118Z,1028.69
2019-03-23T08:18:02.374Z,1028.64
2019-03-23T08:19:02.614Z,1028.64
2019-03-23T08:20:01.863Z,1028.64
2019-03-23T08:21:02.097Z,1028.64
2019-03-23T08:22:01.995Z,1028.78
2019-03-23T08:23:02.235Z,1028.78
2019-03-23T08:24:02.355Z,1028.78
2019-03-23T08:25:02.706Z,1028.78
2019-03-23T08:26:01.883Z,1028.78
2019-03-23T08:27:02.092Z,1028.78
2019-03-23T08:28:02.354Z,1028.78
2019-03-23T08:29:03.602Z,1028.78
2019-03-23T08:30:01.819Z,1028.77
2019-03-23T08:31:01.988Z,1028.77
2019-03-23T08:32:02.113Z,1028.77
2019-03-23T08:33:02.294Z,1028.77
2019-03-23T08:34:02.521Z,1028.78
2019-03-23T08:35:01.826Z,1028.78
2019-03-23T08:36:02.071Z,1028.78
2019-03-23T08:37:02.437Z,1028.78
2019-03-23T08:38:02.512Z,1028.87
2019-03-23T08:39:01.661Z,1028.87
2019-03-23T08:40:01.965Z,1028.87
2019-03-23T08:41:02.187Z,1028.87
2019-03-23T08:42:02.066Z,1028.94
2019-03-23T08:43:02.208Z,1028.94
2019-03-23T08:44:02.424Z,1028.94
2019-03-23T08:45:02.629Z,1028.94
2019-03-23T08:46:01.797Z,1028.96
2019-03-23T08:47:01.999Z,1028.96
2019-03-23T08:48:02.176Z,1028.96
2019-03-23T08:49:02.440Z,1028.96
2019-03-23T08:50:02.691Z,1028.83
2019-03-23T08:51:01.870Z,1028.83
2019-03-23T08:52:02.093Z,1028.83
2019-03-23T08:53:01.902Z,1028.83
2019-03-23T08:54:02.092Z,1028.8
2019-03-23T08:55:02.413Z,1028.8
2019-03-23T08:56:01.643Z,1028.8
2019-03-23T08:57:01.839Z,1028.8
2019-03-23T08:58:02.054Z,1028.8
2019-03-23T08:59:02.218Z,1028.8
2019-03-23T09:00:04.266Z,1028.8
2019-03-23T09:01:02.087Z,1028.8
2019-03-23T09:02:02.363Z,1028.92
2019-03-23T09:03:04.159Z,1028.92
2019-03-23T09:04:01.696Z,1028.92
2019-03-23T09:05:02.072Z,1028.92
2019-03-23T09:06:02.170Z,1029.02
2019-03-23T09:07:02.375Z,1029.02
2019-03-23T09:08:01.683Z,1029.02
2019-03-23T09:09:01.983Z,1029.02
2019-03-23T09:10:02.231Z,1028.99
2019-03-23T09:11:02.473Z,1028.99
2019-03-23T09:12:02.207Z,1028.99
2019-03-23T09:13:02.462Z,1029.06
2019-03-23T09:14:01.651Z,1029.06
2019-03-23T09:15:01.904Z,1029.06
2019-03-23T09:16:02.123Z,1029.06
2019-03-23T09:17:02.292Z,1029.14
2019-03-23T09:18:02.495Z,1029.14
2019-03-23T09:19:01.752Z,1029.14
2019-03-23T09:20:02.072Z,1029.14
2019-03-23T09:21:02.325Z,1029.32
2019-03-23T09:22:02.460Z,1029.32
2019-03-23T09:23:02.550Z,1029.32
2019-03-23T09:24:01.847Z,1029.32
2019-03-23T09:25:02.080Z,1029.38
2019-03-23T09:26:02.279Z,1029.38
2019-03-23T09:27:02.394Z,1029.38
2019-03-23T09:28:02.639Z,1029.38
2019-03-23T09:29:02.328Z,1029.39
2019-03-23T09:30:02.522Z,1029.39
2019-03-23T09:31:01.751Z,1029.39
2019-03-23T09:32:01.925Z,1029.39
2019-03-23T09:33:02.187Z,1029.48
2019-03-23T09:34:02.376Z,1029.48
2019-03-23T09:35:01.825Z,1029.48
2019-03-23T09:36:02.017Z,1029.48
2019-03-23T09:37:02.232Z,1029.62
2019-03-23T09:38:02.388Z,1029.62
2019-03-23T09:39:01.589Z,1029.62
2019-03-23T09:40:11.547Z,1029.62
2019-03-23T09:41:01.940Z,1029.55
2019-03-23T09:42:02.092Z,1029.55
2019-03-23T09:43:02.336Z,1029.55
2019-03-23T09:44:02.577Z,1029.55
2019-03-23T09:45:01.793Z,1029.5
2019-03-23T09:46:02.075Z,1029.5
2019-03-23T09:47:02.208Z,1029.5
2019-03-23T09:48:02.481Z,1029.5
2019-03-23T09:49:01.802Z,1029.53
2019-03-23T09:50:02.040Z,1029.53
2019-03-23T09:51:02.331Z,1029.53
2019-03-23T09:52:02.542Z,1029.53
2019-03-23T09:53:01.674Z,1029.58
2019-03-23T09:54:01.872Z,1029.58
2019-03-23T09:55:02.111Z,1029.58
2019-03-23T09:56:02.392Z,1029.58
2019-03-23T09:57:02.733Z,1029.68
2019-03-23T09:58:01.707Z,1029.68
2019-03-23T09:59:01.904Z,1029.68
2019-03-23T10:00:04.530Z,1029.68
2019-03-23T10:01:02.377Z,1029.73
2019-03-23T10:02:02.577Z,1029.73
2019-03-23T10:03:01.730Z,1029.73
2019-03-23T10:04:01.986Z,1029.73
2019-03-23T10:05:02.230Z,1029.77
2019-03-23T10:06:02.378Z,1029.77
2019-03-23T10:07:02.154Z,1029.77
2019-03-23T10:08:02.303Z,1029.77
2019-03-23T10:09:02.516Z,1029.76
2019-03-23T10:10:01.740Z,1029.76
2019-03-23T10:11:01.997Z,1029.76
2019-03-23T10:12:02.133Z,1029.76
2019-03-23T10:13:02.322Z,1029.79
2019-03-23T10:14:03.542Z,1029.79
2019-03-23T10:15:01.799Z,1029.79
2019-03-23T10:16:02.017Z,1029.79
2019-03-23T10:17:02.152Z,1029.81
2019-03-23T10:18:02.341Z,1029.81
2019-03-23T10:19:02.509Z,1029.81
2019-03-23T10:20:01.682Z,1029.81
2019-03-23T10:21:01.898Z,1029.86
2019-03-23T10:22:02.106Z,1029.86
2019-03-23T10:23:02.268Z,1029.86
2019-03-23T10:24:02.516Z,1029.86
2019-03-23T10:25:01.910Z,1029.84
2019-03-23T10:26:01.979Z,1029.84
2019-03-23T10:27:02.165Z,1029.84
2019-03-23T10:28:02.390Z,1029.84
2019-03-23T10:29:02.521Z,1029.83
2019-03-23T10:30:01.871Z,1029.83
2019-03-23T10:31:02.011Z,1029.83
2019-03-23T10:32:02.244Z,1029.83
2019-03-23T10:33:02.389Z,1029.83
2019-03-23T10:34:02.625Z,1029.83
2019-03-23T10:35:01.866Z,1029.83
2019-03-23T10:36:02.051Z,1029.83
2019-03-23T10:37:02.307Z,1029.99
2019-03-23T10:38:02.596Z,1029.99
2019-03-23T10:39:02.176Z,1029.99
2019-03-23T10:40:02.457Z,1029.99
2019-03-23T10:41:01.684Z,1029.92
2019-03-23T10:42:01.779Z,1029.92
2019-03-23T10:43:02.109Z,1029.92
2019-03-23T10:44:02.094Z,1029.92
2019-03-23T10:45:02.360Z,1030.07
2019-03-23T10:46:02.518Z,1030.07
2019-03-23T10:47:01.647Z,1030.07
2019-03-23T10:48:01.806Z,1030.07
2019-03-23T10:49:01.683Z,1030.11
2019-03-23T10:50:01.934Z,1030.11
2019-03-23T10:51:02.113Z,1030.11
2019-03-23T10:52:02.270Z,1029.97
2019-03-23T10:53:02.474Z,1029.97
2019-03-23T10:54:04.454Z,1029.97
2019-03-23T10:55:01.741Z,1029.97
2019-03-23T10:56:01.922Z,1030.11
2019-03-23T10:57:02.079Z,1030.11
2019-03-23T10:58:02.360Z,1030.11
2019-03-23T10:59:02.654Z,1030.11
2019-03-23T11:00:05.770Z,1030.08
2019-03-23T11:01:02.559Z,1030.08
2019-03-23T11:02:01.684Z,1030.08
2019-03-23T11:03:01.945Z,1030.08
2019-03-23T11:04:02.220Z,1030.17
2019-03-23T11:05:02.404Z,1030.17
2019-03-23T11:06:01.627Z,1030.17
2019-03-23T11:07:01.870Z,1030.17
2019-03-23T11:08:02.120Z,1030.21
2019-03-23T11:09:02.490Z,1030.21
2019-03-23T11:10:01.633Z,1030.21
2019-03-23T11:11:01.930Z,1030.21
2019-03-23T11:12:02.133Z,1030.23
2019-03-23T11:13:02.321Z,1030.23
2019-03-23T11:14:02.626Z,1030.23
2019-03-23T11:15:01.921Z,1030.23
2019-03-23T11:16:02.587Z,1030.23
2019-03-23T11:17:01.739Z,1030.23
2019-03-23T11:18:02.245Z,1030.23
2019-03-23T11:19:02.537Z,1030.23
2019-03-23T11:20:01.768Z,1030.21
2019-03-23T11:21:02.167Z,1030.21
2019-03-23T11:22:02.133Z,1030.21
2019-03-23T11:23:02.344Z,1030.21
2019-03-23T11:24:02.402Z,1030.34
2019-03-23T11:25:02.614Z,1030.34
2019-03-23T11:26:01.778Z,1030.34
2019-03-23T11:27:02.037Z,1030.34
2019-03-23T11:28:02.255Z,1030.33
2019-03-23T11:29:02.572Z,1030.33
2019-03-23T11:30:01.828Z,1030.33
2019-03-23T11:31:02.036Z,1030.33
2019-03-23T11:32:02.269Z,1030.45
2019-03-23T11:33:02.561Z,1030.45
2019-03-23T11:34:01.736Z,1030.45
2019-03-23T11:35:02.120Z,1030.45
2019-03-23T11:36:01.910Z,1030.49
2019-03-23T11:37:02.167Z,1030.49
2019-03-23T11:38:02.904Z,1030.49
2019-03-23T11:39:02.585Z,1030.49
2019-03-23T11:40:01.771Z,1030.6
2019-03-23T11:41:01.980Z,1030.6
2019-03-23T11:42:02.168Z,1030.6
2019-03-23T11:43:02.401Z,1030.6
2019-03-23T11:44:02.520Z,1030.61
2019-03-23T11:45:01.766Z,1030.61
2019-03-23T11:46:02.037Z,1030.61
2019-03-23T11:47:02.121Z,1030.61
2019-03-23T11:48:02.379Z,1030.64
2019-03-23T11:49:02.529Z,1030.64
2019-03-23T11:50:01.970Z,1030.64
2019-03-23T11:51:02.408Z,1030.64
2019-03-23T11:52:02.423Z,1030.75
2019-03-23T11:53:01.686Z,1030.75
2019-03-23T11:54:01.743Z,1030.75
2019-03-23T11:55:02.083Z,1030.75
2019-03-23T11:56:02.228Z,1030.7
2019-03-23T11:57:02.461Z,1030.7
2019-03-23T11:58:01.662Z,1030.7
2019-03-23T11:59:01.798Z,1030.7
2019-03-23T12:00:03.735Z,1030.83
2019-03-23T12:01:02.593Z,1030.83
2019-03-23T12:02:01.732Z,1030.83
2019-03-23T12:03:02.015Z,1030.83
2019-03-23T12:04:02.153Z,1030.78
2019-03-23T12:05:02.385Z,1030.78
2019-03-23T12:06:02.551Z,1030.78
2019-03-23T12:07:01.808Z,1030.78